Latest Weather Observations for Sunshine Coast Airport

IDQ60801

Issued at 2:22 am EST Tuesday 23 April 2024 (issued every 10 minutes, with the page automatically refreshed every 10 minutes)

About weather observations | Map of weather stations | Latest weather observations for QLD | Other Formats
Station Details ID: 040861 Name: SUNSHINE COAST AIRPORT Lat: -26.60 Lon: 153.09 Height: 3.42 m
Data from the previous 72 hours. | See also: Recent months at Sunshine Coast Airport
Date/Time
EST
Temp
°C
App
Temp
°C
Dew
Point
°C
Rel
Hum
%
Delta-T
°C
Wind Press
QNH
hPa
Press
MSL
hPa
Rain since
9am
mm
Dir  Spd
km/h
Gust
km/h
Spd
kts
Gust
kts
23/02:00am 18.7 18.0 16.5 87 1.3 SSW 15 19 8 10 1020.8 1020.7 0.8
23/01:30am 19.0 17.4 16.6 86 1.4 SSW 20 30 11 16 1021.0 1020.9 0.8
23/01:00am 19.1 18.2 16.9 87 1.3 SSW 17 22 9 12 1021.3 1021.2 0.8
23/12:30am 19.3 18.0 16.7 85 1.6 SSW 19 24 10 13 1021.3 1021.2 0.8
23/12:00am 19.4 19.6 16.8 85 1.6 SSW 11 17 6 9 1021.3 1021.2 0.8
 
Date/Time
EST
Temp
°C
App
Temp
°C
Dew
Point
°C
Rel
Hum
%
Delta-T
°C
Wind Press
QNH
hPa
Press
MSL
hPa
Rain since
9am
mm
Dir  Spd
km/h
Gust
km/h
Spd
kts
Gust
kts
22/11:30pm 19.5 18.7 17.1 86 1.5 SSW 17 20 9 11 1021.6 1021.5 0.8
22/11:00pm 19.5 18.1 17.1 86 1.5 SSW 20 30 11 16 1021.7 1021.6 0.8
22/10:30pm 22.9 19.5 16.7 68 3.8 SE 30 44 16 24 1021.5 1021.4 0.2
22/10:00pm 22.9 19.1 16.7 68 3.8 SE 32 44 17 24 1021.7 1021.6 0.2
22/09:30pm 23.1 19.1 16.2 65 4.2 SE 32 41 17 22 1021.8 1021.7 0.2
22/09:00pm 22.9 19.3 17.1 70 3.6 SE 32 43 17 23 1021.9 1021.8 0.2
22/08:38pm 22.8 20.0 17.3 71 3.4 SE 28 46 15 25 1021.9 1021.8 0.2
22/08:30pm 23.0 19.2 16.8 68 3.8 SE 32 43 17 23 1021.8 1021.7 0.2
22/08:00pm 23.2 19.1 16.5 66 4.1 SE 33 44 18 24 1021.8 1021.7 0.2
22/07:30pm 23.3 18.6 15.9 63 4.5 SE 35 46 19 25 1021.4 1021.3 0.2
22/07:00pm 23.3 19.4 16.4 65 4.2 SE 32 44 17 24 1021.2 1021.1 0.2
22/06:30pm 23.4 19.0 15.7 62 4.6 SE 33 46 18 25 1021.0 1020.9 0.2
22/06:00pm 23.5 18.8 15.8 62 4.6 SE 35 46 19 25 1020.9 1020.8 0.2
22/05:30pm 23.5 19.5 16.1 63 4.5 SE 32 44 17 24 1020.8 1020.7 0.2
22/05:00pm 23.4 19.0 15.7 62 4.6 SE 33 46 18 25 1020.4 1020.3 0.2
22/04:30pm 23.6 18.7 15.4 60 4.9 SE 35 56 19 30 1020.0 1019.9 0.2
22/04:22pm 23.7 19.1 16.0 62 4.7 SE 35 56 19 30 1020.0 1019.9 0.2
22/04:00pm 23.3 18.2 16.8 67 4.0 SE 39 54 21 29 1020.0 1019.9 0.2
22/03:30pm 22.3 19.2 17.4 74 3.0 SSE 30 46 16 25 1019.9 1019.8 0.2
22/03:19pm 23.1 18.4 16.9 68 3.8 SE 37 56 20 30 1020.1 1020.0 0.0
22/03:00pm 24.3 19.4 15.2 57 5.4 SSE 35 50 19 27 1019.9 1019.8 0.0
22/02:30pm 25.0 20.5 16.4 59 5.3 SSE 35 50 19 27 1019.7 1019.6 0.0
22/02:00pm 24.9 20.3 16.1 58 5.4 SSE 35 52 19 28 1019.9 1019.8 0.0
22/01:33pm 25.0 20.9 15.9 57 5.5 SSE 32 50 17 27 1019.9 1019.8 0.0
22/01:30pm 25.2 20.7 15.5 55 5.9 SSE 33 50 18 27 1019.9 1019.8 0.0
22/01:00pm 24.7 18.8 14.8 54 5.9 SSE 39 52 21 28 1020.2 1020.1 0.0
22/12:36pm 24.4 19.9 16.4 61 4.9 SSE 35 54 19 29 1020.3 1020.2 0.0
22/12:30pm 24.4 19.2 15.6 58 5.3 SSE 37 54 20 29 1020.4 1020.3 0.0
22/12:00pm 24.8 20.2 16.0 58 5.3 SE 35 52 19 28 1020.7 1020.6 0.0
22/11:33am 24.5 19.0 15.7 58 5.3 SE 39 57 21 31 1020.9 1020.8 0.0
22/11:30am 24.7 19.6 16.7 61 4.9 SE 39 54 21 29 1020.9 1020.8 0.0
22/11:15am 24.5 21.6 17.0 63 4.6 SSE 28 48 15 26 1021.0 1020.9 0.0
22/11:00am 22.3 18.4 17.9 76 2.7 SSE 35 48 19 26 1021.2 1021.1 0.0
22/10:31am 22.5 18.3 17.2 72 3.3 SSE 35 54 19 29 1021.7 1021.6 0.0
22/10:30am 22.6 18.1 17.3 72 3.3 SSE 37 54 20 29 1021.7 1021.6 0.0
22/10:00am 23.1 18.2 16.4 66 4.1 SSE 37 54 20 29 1021.8 1021.7 0.0
22/09:41am 23.0 17.1 16.8 68 3.8 SSE 43 61 23 33 1021.8 1021.7 0.0
22/09:30am 22.7 16.2 16.7 69 3.7 SE 46 57 25 31 1021.9 1021.8 0.0
22/09:14am 23.4 17.7 16.2 64 4.4 SE 41 59 22 32 1021.7 1021.6 0.0
22/09:00am 23.6 17.9 17.1 67 4.0 SE 43 59 23 32 1021.7 1021.6 60.8
22/08:54am 23.4 18.3 17.6 70 3.6 SE 41 59 22 32 1021.7 1021.6 60.8
22/08:30am 23.0 17.4 16.5 67 4.0 SE 41 56 22 30 1021.5 1021.4 60.8
22/08:02am 23.1 18.2 17.3 70 3.6 SSE 39 57 21 31 1021.3 1021.2 60.8
22/08:00am 23.1 18.5 18.0 73 3.2 SSE 39 56 21 30 1021.3 1021.2 60.8
22/07:31am 22.2 19.0 18.2 78 2.5 SSE 32 50 17 27 1020.9 1020.8 60.8
22/07:30am 21.8 18.6 18.2 80 2.2 SSE 32 43 17 23 1020.9 1020.8 60.8
22/07:00am 21.3 17.1 17.1 77 2.6 SSE 35 59 19 32 1020.4 1020.3 60.8
22/06:35am 22.0 16.9 16.9 73 3.1 SE 39 61 21 33 1020.1 1020.0 60.8
22/06:30am 22.1 18.1 17.7 76 2.7 SSE 35 48 19 26 1019.9 1019.8 60.8
22/06:12am 19.7 15.4 16.0 79 2.2 SSE 33 52 18 28 1019.9 1019.8 60.8
22/06:03am 22.8 17.5 16.4 67 3.9 SE 39 57 21 31 1019.7 1019.6 60.6
22/06:00am 23.1 17.7 15.9 64 4.3 SE 39 52 21 28 1019.7 1019.6 60.6
22/05:51am 22.9 18.2 16.9 69 3.7 SE 37 56 20 30 1019.6 1019.5 60.6
22/05:30am 22.9 17.1 16.0 65 4.2 SE 41 54 22 29 1019.5 1019.4 60.6
22/05:00am 22.6 18.0 17.1 71 3.4 SSE 37 50 20 27 1019.0 1018.9 60.6
22/04:30am 22.2 17.4 16.5 70 3.5 SSE 37 50 20 27 1018.9 1018.8 60.6
22/04:20am 21.8 18.9 17.0 74 2.9 SSE 28 48 15 26 1019.0 1018.9 60.6
22/04:00am 19.2 17.0 17.0 87 1.3 S 24 32 13 17 1018.9 1018.8 60.6
22/03:30am 18.6 16.4 16.8 89 1.1 S 24 32 13 17 1018.8 1018.7 60.6
22/03:00am 18.5 16.9 16.5 88 1.2 SSW 20 26 11 14 1018.8 1018.7 60.6
22/02:30am 18.7 16.7 16.5 87 1.3 SSW 22 32 12 17 1019.0 1018.9 60.6
22/02:00am 19.1 17.6 16.7 86 1.4 S 20 30 11 16 1019.3 1019.2 60.6
22/01:30am 18.6 16.7 16.8 89 1.1 S 22 35 12 19 1019.7 1019.6 60.6
22/01:00am 18.4 16.8 16.6 89 1.1 SSW 20 30 11 16 1020.1 1020.0 60.6
22/12:30am 18.8 17.5 16.9 89 1.1 S 19 24 10 13 1019.7 1019.6 60.4
22/12:09am 19.0 18.0 16.6 86 1.4 S 17 24 9 13 1019.5 1019.4 60.4
22/12:00am 19.2 17.5 17.2 88 1.2 S 22 33 12 18 1019.8 1019.7 60.4
 
Date/Time
EST
Temp
°C
App
Temp
°C
Dew
Point
°C
Rel
Hum
%
Delta-T
°C
Wind Press
QNH
hPa
Press
MSL
hPa
Rain since
9am
mm
Dir  Spd
km/h
Gust
km/h
Spd
kts
Gust
kts
21/11:53pm 19.1 17.0 17.1 88 1.2 SSW 24 33 13 18 1020.2 1020.1 60.2
21/11:30pm 19.8 16.9 17.0 84 1.7 S 28 44 15 24 1020.3 1020.2 58.4
21/11:04pm 21.0 16.9 16.4 75 2.8 SSE 33 50 18 27 1020.3 1020.2 58.4
21/11:00pm 22.6 17.6 16.2 67 3.9 SE 37 50 20 27 1020.2 1020.1 58.4
21/10:52pm 22.6 17.9 16.9 70 3.5 SE 37 54 20 29 1020.3 1020.2 58.4
21/10:37pm 20.6 17.1 16.4 77 2.5 E 30 50 16 27 1020.4 1020.3 58.2
21/10:30pm 21.3 17.5 18.1 82 2.0 E 35 46 19 25 1020.4 1020.3 57.8
21/10:22pm 20.9 19.3 18.3 85 1.6 SE 24 46 13 25 1020.5 1020.4 57.8
21/10:10pm 19.1 18.1 17.9 93 0.7 S 20 28 11 15 1020.4 1020.3 57.8
21/10:00pm 18.9 17.0 17.7 93 0.7 S 24 35 13 19 1020.6 1020.5 57.8
21/09:49pm 19.0 16.2 17.3 90 1.0 SSW 28 43 15 23 1020.7 1020.6 56.8
21/09:30pm 22.8 18.5 17.0 70 3.6 SE 35 46 19 25 1020.2 1020.1 55.8
21/09:00pm 23.0 19.3 17.0 69 3.7 SE 32 44 17 24 1020.2 1020.1 55.8
21/08:50pm 22.7 19.3 17.6 73 3.2 SSE 32 50 17 27 1020.0 1019.9 55.8
21/08:30pm 22.8 18.7 17.3 71 3.4 SE 35 48 19 26 1020.3 1020.2 55.8
21/08:18pm 22.4 19.7 17.5 74 3.0 SSE 28 46 15 25 1020.0 1019.9 55.8
21/08:00pm 19.6 16.9 17.6 88 1.2 SSW 28 35 15 19 1019.5 1019.4 55.8
21/07:30pm 20.2 18.2 17.4 84 1.7 SSW 24 33 13 18 1019.2 1019.1 55.8
21/07:00pm 19.9 18.7 17.5 86 1.5 S 20 26 11 14 1018.8 1018.7 55.8
21/06:30pm 19.6 18.6 17.6 88 1.2 SSW 19 26 10 14 1018.6 1018.5 55.8
21/06:00pm 19.7 17.7 17.5 87 1.3 SSW 24 35 13 19 1018.6 1018.5 55.8
21/05:30pm 19.6 19.2 18.1 91 0.9 SSW 17 24 9 13 1018.3 1018.2 55.8
21/05:00pm 19.7 20.2 18.4 92 0.8 S 13 24 7 13 1018.0 1017.9 55.8
21/04:30pm 19.9 18.2 18.0 89 1.2 SSW 24 35 13 19 1017.5 1017.4 55.6
21/04:15pm 20.6 17.2 18.2 86 1.5 ESE 33 54 18 29 1017.4 1017.3 55.6
21/04:12pm 20.5 16.8 18.3 87 1.4 ESE 35 54 19 29 1017.3 1017.2 55.6
21/04:00pm 19.6 16.2 18.1 91 0.9 ESE 33 48 18 26 1017.6 1017.5 55.2
21/03:57pm 19.6 16.7 17.9 90 1.0 ESE 30 48 16 26 1017.6 1017.5 54.2
21/03:45pm 19.3 18.5 18.0 92 0.8 S 19 33 10 18 1017.6 1017.5 46.2
21/03:30pm 19.2 17.1 17.2 88 1.2 S 24 46 13 25 1017.6 1017.5 39.2
21/03:10pm 19.5 19.3 17.6 89 1.2 SSW 15 24 8 13 1017.2 1017.1 36.4
21/03:07pm 19.6 19.2 18.1 91 0.9 SSW 17 28 9 15 1017.3 1017.2 34.8
21/03:00pm 19.7 18.7 18.0 90 1.0 SSW 20 30 11 16 1017.3 1017.2 34.4
21/02:40pm 19.6 18.9 18.3 92 0.8 SW 19 26 10 14 1017.3 1017.2 31.6
21/02:30pm 19.9 19.7 18.6 92 0.8 SW 17 22 9 12 1017.1 1017.0 30.6
21/02:00pm 20.1 19.5 18.4 90 1.1 S 19 28 10 15 1017.0 1016.9 30.0
21/01:30pm 20.7 18.2 18.1 85 1.6 SSE 28 44 15 24 1016.9 1016.8 29.4
21/01:24pm 21.2 19.5 18.0 82 2.0 S 24 44 13 24 1016.8 1016.7 29.4
21/01:00pm 21.9 21.3 17.5 76 2.7 SE 17 24 9 13 1016.9 1016.8 29.4
21/12:30pm 20.5 17.4 16.5 78 2.4 ESE 28 41 15 22 1017.7 1017.6 29.4
21/12:27pm 20.6 17.9 17.6 83 1.8 ESE 28 37 15 20 1017.7 1017.6 29.4
21/12:00pm 19.5 16.7 18.2 92 0.8 SSE 30 44 16 24 1018.3 1018.2 28.2
21/11:50am 20.1 19.0 18.6 91 0.9 S 22 35 12 19 1018.4 1018.3 25.4
21/11:41am 20.4 20.4 18.9 91 0.9 SSE 17 26 9 14 1018.2 1018.1 24.2
21/11:30am 20.7 20.2 19.2 91 0.9 SE 20 33 11 18 1018.1 1018.0 24.0
21/11:26am 20.5 19.5 18.8 90 1.1 SE 22 33 12 18 1018.2 1018.1 24.0
21/11:15am 20.3 18.6 18.1 87 1.4 ESE 24 35 13 19 1018.2 1018.1 23.6
21/11:00am 20.0 20.6 18.5 91 0.9 ESE 13 30 7 16 1018.5 1018.4 23.2
21/10:49am 19.6 20.1 18.3 92 0.8 E 13 20 7 11 1018.6 1018.5 22.6
21/10:30am 19.6 20.6 18.6 94 0.6 ESE 11 19 6 10 1018.9 1018.8 20.0
21/10:26am 19.5 20.4 18.5 94 0.6 SE 11 15 6 8 1018.7 1018.6 19.6
21/10:00am 19.3 18.9 18.1 93 0.7 SSW 17 22 9 12 1018.8 1018.7 12.2
21/09:52am 19.4 18.6 18.1 92 0.8 SSW 19 24 10 13 1018.8 1018.7 11.6
21/09:45am 19.6 19.3 18.3 92 0.8 SSW 17 24 9 13 1018.9 1018.8 11.4
21/09:30am 19.1 19.8 17.9 93 0.7 SE 11 22 6 12 1018.9 1018.8 10.4
21/09:16am 18.7 17.7 17.5 93 0.7 SSE 19 28 10 15 1019.3 1019.2 9.0
21/09:06am 19.0 18.1 17.7 92 0.8 S 19 24 10 13 1018.8 1018.7 1.4
21/09:00am 19.0 18.4 17.5 91 0.9 SSW 17 30 9 16 1018.6 1018.5 28.6
21/08:30am 19.2 17.9 17.2 88 1.2 SSW 20 26 11 14 1018.5 1018.4 27.6
21/08:00am 19.0 17.1 16.8 87 1.3 SSW 22 28 12 15 1018.4 1018.3 27.4
21/07:30am 18.7 17.2 16.7 88 1.2 SW 20 30 11 16 1018.2 1018.1 27.4
21/07:00am 18.1 16.0 16.3 89 1.1 SSW 22 32 12 17 1017.9 1017.8 27.4
21/06:30am 17.8 16.1 16.3 91 0.9 SW 20 30 11 16 1017.6 1017.5 27.4
21/06:00am 17.7 15.3 16.4 92 0.8 SSW 24 32 13 17 1016.8 1016.7 27.4
21/05:30am 17.7 14.5 16.4 92 0.8 SSW 28 37 15 20 1016.2 1016.1 27.4
21/05:00am 17.7 14.8 16.2 91 0.9 SSW 26 33 14 18 1016.7 1016.6 27.4
21/04:30am 17.6 15.5 16.3 92 0.8 SSW 22 30 12 16 1017.0 1016.9 27.4
21/04:00am 17.4 15.3 16.1 92 0.8 SSW 22 30 12 16 1016.7 1016.6 27.4
21/03:30am 17.4 15.7 16.3 93 0.7 SSW 20 26 11 14 1016.5 1016.4 27.4
21/03:00am 17.3 15.6 16.2 93 0.7 SSW 20 32 11 17 1016.9 1016.8 27.2
21/02:30am 17.4 15.0 16.4 94 0.6 SSW 24 32 13 17 1017.0 1016.9 26.8
21/02:23am 17.4 15.4 16.4 94 0.6 SSW 22 32 12 17 1017.0 1016.9 26.6
21/02:05am 17.4 14.6 16.3 93 0.7 SSW 26 33 14 18 1017.1 1017.0 25.6
21/02:00am 17.5 15.0 16.2 92 0.8 SSW 24 33 13 18 1017.2 1017.1 24.8
21/01:30am 17.4 15.6 16.1 92 0.8 SW 20 30 11 16 1017.6 1017.5 24.4
21/01:14am 17.4 15.3 16.3 93 0.7 SSW 22 32 12 17 1017.5 1017.4 24.2
21/01:00am 17.4 15.0 16.3 93 0.7 S 24 32 13 17 1017.5 1017.4 24.2
21/12:58am 17.4 14.5 16.1 92 0.8 SSW 26 35 14 19 1017.6 1017.5 24.2
21/12:30am 17.7 15.1 16.0 90 1.0 SSW 24 33 13 18 1018.0 1017.9 23.8
21/12:00am 17.6 14.2 15.9 90 1.0 SSW 28 35 15 19 1017.7 1017.6 23.8
 
Date/Time
EST
Temp
°C
App
Temp
°C
Dew
Point
°C
Rel
Hum
%
Delta-T
°C
Wind Press
QNH
hPa
Press
MSL
hPa
Rain since
9am
mm
Dir  Spd
km/h
Gust
km/h
Spd
kts
Gust
kts
20/11:30pm 17.5 14.4 15.7 89 1.1 SSW 26 35 14 19 1018.1 1018.0 23.8
20/11:00pm 17.5 14.8 15.7 89 1.1 SSW 24 35 13 19 1018.5 1018.4 23.8
20/10:30pm 17.8 14.4 15.8 88 1.2 SSW 28 41 15 22 1018.4 1018.3 23.8
20/10:00pm 18.2 15.5 15.6 85 1.5 SSW 24 33 13 18 1018.6 1018.5 23.6
20/09:30pm 17.8 15.1 15.6 87 1.3 SSW 24 32 13 17 1018.4 1018.3 23.6
20/09:00pm 18.1 15.7 15.4 84 1.6 SW 22 30 12 16 1018.7 1018.6 23.4
20/08:30pm 18.7 16.3 15.4 81 1.9 SW 22 28 12 15 1018.7 1018.6 23.4
20/08:00pm 18.4 16.4 15.5 83 1.7 SW 20 28 11 15 1018.1 1018.0 23.4
20/07:30pm 18.2 16.4 16.0 87 1.3 WSW 20 26 11 14 1018.4 1018.3 23.4
20/07:00pm 18.2 16.9 15.8 86 1.4 WSW 17 22 9 12 1018.0 1017.9 23.4
20/06:30pm 18.3 17.0 15.7 85 1.5 SW 17 22 9 12 1017.3 1017.2 23.4
20/06:00pm 18.5 16.4 15.2 81 1.9 SW 20 28 11 15 1017.1 1017.0 23.4
20/05:30pm 18.8 16.8 14.9 78 2.3 SW 19 26 10 14 1016.4 1016.3 23.4
20/05:00pm 19.0 17.7 15.7 81 2.0 SSW 17 22 9 12 1015.7 1015.6 23.4
20/04:30pm 19.7 18.3 16.9 84 1.7 SSW 20 28 11 15 1015.9 1015.8 23.4
20/04:00pm 20.0 19.3 18.7 92 0.8 SW 20 28 11 15 1016.6 1016.5 23.2
20/03:30pm 20.7 20.8 19.2 91 0.9 SW 17 22 9 12 1016.1 1016.0 23.0
20/03:00pm 21.0 20.7 19.1 89 1.2 S 19 30 10 16 1015.3 1015.2 22.6
20/02:35pm 20.8 21.7 19.3 91 0.9 S 13 28 7 15 1014.8 1014.8 21.8
20/02:30pm 20.8 22.1 19.3 91 0.9 S 11 17 6 9 1015.7 1015.6 21.6
20/02:00pm 20.5 20.8 19.5 94 0.6 SSW 17 20 9 11 1015.1 1015.0 21.2
20/01:44pm 20.2 19.8 19.0 93 0.8 SSW 19 30 10 16 1015.3 1015.2 20.8
20/01:30pm 19.8 20.0 18.6 93 0.7 SW 15 20 8 11 1015.2 1015.1 20.2
20/01:11pm 19.9 19.2 18.6 92 0.8 SSW 20 35 11 19 1015.4 1015.3 17.4
20/01:05pm 20.2 19.8 18.9 92 0.8 SSW 19 26 10 14 1015.4 1015.3 13.6
20/01:00pm 20.3 19.9 19.0 92 0.8 SW 19 22 10 12 1015.4 1015.3 10.8
20/12:53pm 20.7 20.4 19.2 91 0.9 SSW 19 26 10 14 1015.7 1015.6 10.4
20/12:34pm 20.9 20.2 18.7 87 1.4 S 20 30 11 16 1015.5 1015.4 9.2
20/12:30pm 21.1 20.5 18.9 87 1.4 S 20 30 11 16 1015.7 1015.6 8.6
20/12:19pm 21.3 20.7 18.9 86 1.5 SSE 20 32 11 17 1016.0 1015.9 8.0
20/12:00pm 21.2 20.2 18.9 87 1.4 SSE 22 32 12 17 1016.0 1015.9 6.6
20/11:33am 21.0 20.8 19.3 90 1.1 S 19 26 10 14 1015.9 1015.8 4.0
20/11:30am 21.1 20.8 19.2 89 1.2 S 19 26 10 14 1015.9 1015.8 3.4
20/11:28am 21.1 21.2 19.2 89 1.2 S 17 26 9 14 1015.9 1015.8 3.4
20/11:14am 21.2 19.7 18.6 85 1.6 S 24 35 13 19 1015.9 1015.8 2.2
20/11:00am 23.2 21.0 17.9 72 3.3 SSE 26 35 14 19 1016.3 1016.2 0.0
20/10:30am 25.0 22.3 18.4 66 4.2 S 30 41 16 22 1016.7 1016.6 0.0
20/10:00am 24.7 22.4 18.4 68 4.0 S 28 37 15 20 1017.2 1017.1 0.0
20/09:30am 24.3 22.5 17.8 67 4.1 S 24 35 13 19 1017.1 1017.0 0.0
20/09:00am 24.0 23.0 18.0 69 3.8 S 20 30 11 16 1017.1 1017.0 0.0
20/08:30am 22.5 20.3 17.0 71 3.4 S 24 32 13 17 1017.2 1017.1 0.0
20/08:00am 21.9 19.6 16.6 72 3.2 SSW 24 32 13 17 1017.2 1017.1 0.0
20/07:30am 21.0 19.3 16.2 74 2.9 SSW 20 24 11 13 1017.0 1016.9 0.0
20/07:00am 20.2 19.9 16.4 79 2.3 SSW 13 19 7 10 1016.9 1016.8 0.0
20/06:30am 19.5 18.8 16.3 82 1.9 SSW 15 19 8 10 1016.2 1016.1 0.0
20/06:00am 19.9 18.5 16.5 81 2.0 SSW 19 24 10 13 1016.0 1015.9 0.0
20/05:30am 19.4 18.3 16.4 83 1.8 SSW 17 22 9 12 1015.5 1015.4 0.0
20/05:00am 19.0 19.3 17.1 89 1.2 SW 11 15 6 8 1015.3 1015.2 0.0
20/04:30am 19.2 19.1 17.0 87 1.3 SW 13 22 7 12 1015.3 1015.2 0.0
20/04:00am 19.1 19.1 17.2 89 1.2 SW 13 17 7 9 1015.2 1015.1 0.0
20/03:30am 18.7 19.0 17.0 90 1.0 SW 11 15 6 8 1015.0 1014.9 0.0
20/03:00am 18.5 18.7 16.8 90 1.0 WSW 11 13 6 7 1015.1 1015.0 0.0
20/02:30am 18.9 19.2 17.0 89 1.1 SW 11 15 6 8 1015.1 1015.0 0.0

Other formats

Comma delimited format used in spreadsheet applications
http://www.bom.gov.au/fwo/IDQ60801/IDQ60801.94569.axf

JavaScript Object Notation format (JSON) in row-major order
http://www.bom.gov.au/fwo/IDQ60801/IDQ60801.94569.json

Data quality

Most of these data are generated automatically and are frequently updated. Quality checks on data are not normally performed. It is possible for incorrect values to appear. Refer to information at About Latest Weather Observations and please check the disclaimer before using these data.